createdAt,value
2023-07-09T00:00:12.707Z,17.70
2023-07-09T00:01:12.790Z,17.59
2023-07-09T00:02:13.425Z,17.60
2023-07-09T00:03:12.599Z,17.57
2023-07-09T00:04:12.631Z,17.59
2023-07-09T00:05:12.567Z,17.51
2023-07-09T00:06:12.568Z,17.38
2023-07-09T00:07:12.532Z,17.51
2023-07-09T00:08:45.589Z,17.52
2023-07-09T00:09:12.560Z,17.60
2023-07-09T00:10:12.555Z,17.59
2023-07-09T00:11:12.567Z,17.60
2023-07-09T00:12:14.581Z,17.57
2023-07-09T00:13:13.488Z,17.60
2023-07-09T00:14:12.660Z,17.46
2023-07-09T00:15:12.550Z,17.45
2023-07-09T00:16:13.170Z,17.38
2023-07-09T00:17:12.509Z,17.45
2023-07-09T00:18:12.445Z,17.54
2023-07-09T00:19:13.077Z,17.49
2023-07-09T00:20:12.456Z,17.46
2023-07-09T00:21:12.491Z,17.44
2023-07-09T00:22:12.532Z,17.38
2023-07-09T00:23:12.434Z,17.42
2023-07-09T00:24:13.186Z,17.38
2023-07-09T00:25:12.506Z,17.36
2023-07-09T00:26:12.483Z,17.38
2023-07-09T00:27:12.481Z,17.30
2023-07-09T00:28:12.505Z,17.27
2023-07-09T00:29:12.462Z,17.22
2023-07-09T00:30:12.451Z,17.26
2023-07-09T00:31:12.487Z,17.22
2023-07-09T00:32:12.520Z,17.29
2023-07-09T00:33:12.389Z,17.26
2023-07-09T00:34:12.393Z,17.23
2023-07-09T00:35:13.132Z,17.20
2023-07-09T00:36:12.359Z,17.14
2023-07-09T00:37:13.121Z,17.06
2023-07-09T00:38:12.380Z,17.09
2023-07-09T00:39:13.122Z,17.05
2023-07-09T00:40:12.396Z,17.02
2023-07-09T00:41:12.369Z,16.97
2023-07-09T00:42:13.023Z,17.02
2023-07-09T00:43:13.151Z,16.99
2023-07-09T00:44:13.023Z,16.96
2023-07-09T00:45:12.353Z,16.93
2023-07-09T00:46:12.319Z,16.90
2023-07-09T00:47:12.302Z,16.94
2023-07-09T00:48:12.374Z,16.96
2023-07-09T00:49:12.280Z,16.97
2023-07-09T00:50:12.304Z,16.86
2023-07-09T00:51:12.309Z,16.83
2023-07-09T00:52:12.233Z,16.90
2023-07-09T00:53:12.248Z,16.81
2023-07-09T00:54:12.244Z,16.81
2023-07-09T00:55:12.240Z,16.91
2023-07-09T00:56:12.220Z,16.79
2023-07-09T00:57:12.195Z,16.83
2023-07-09T00:58:12.254Z,16.81
2023-07-09T00:59:12.222Z,16.71
2023-07-09T01:00:12.179Z,16.71
2023-07-09T01:01:12.277Z,16.72
2023-07-09T01:02:12.184Z,16.68
2023-07-09T01:03:12.318Z,16.69
2023-07-09T01:04:12.151Z,16.64
2023-07-09T01:05:12.947Z,16.66
2023-07-09T01:06:12.131Z,16.58
2023-07-09T01:07:12.094Z,16.60
2023-07-09T01:08:12.123Z,16.58
2023-07-09T01:09:12.122Z,16.65
2023-07-09T01:10:12.111Z,16.69
2023-07-09T01:11:12.109Z,16.57
2023-07-09T01:12:12.156Z,16.56
2023-07-09T01:13:12.087Z,16.57
2023-07-09T01:14:12.160Z,16.53
2023-07-09T01:15:12.048Z,16.42
2023-07-09T01:16:12.133Z,16.49
2023-07-09T01:17:12.063Z,16.49
2023-07-09T01:18:12.125Z,16.41
2023-07-09T01:19:12.069Z,16.42
2023-07-09T01:20:12.060Z,16.43
2023-07-09T01:21:12.006Z,16.42
2023-07-09T01:22:12.013Z,16.38
2023-07-09T01:23:12.031Z,16.41
2023-07-09T01:24:12.007Z,16.33
2023-07-09T01:25:12.034Z,16.36
2023-07-09T01:26:12.680Z,16.35
2023-07-09T01:27:12.031Z,16.29
2023-07-09T01:28:11.994Z,16.33
2023-07-09T01:29:11.974Z,16.36
2023-07-09T01:30:12.009Z,16.28
2023-07-09T01:31:11.991Z,16.24
2023-07-09T01:32:11.989Z,16.21
2023-07-09T01:33:11.909Z,16.21
2023-07-09T01:34:11.887Z,16.28
2023-07-09T01:35:11.878Z,16.10
2023-07-09T01:36:11.941Z,16.16
2023-07-09T01:37:11.882Z,16.10
2023-07-09T01:38:11.890Z,16.09
2023-07-09T01:39:11.925Z,16.01
2023-07-09T01:40:20.618Z,16.05
2023-07-09T01:41:13.936Z,15.95
2023-07-09T01:42:11.888Z,15.95
2023-07-09T01:43:11.885Z,15.97
2023-07-09T01:44:12.490Z,15.88
2023-07-09T01:45:11.893Z,15.98
2023-07-09T01:46:11.884Z,16.00
2023-07-09T01:47:11.909Z,15.97
2023-07-09T01:48:11.855Z,16.02
2023-07-09T01:49:11.821Z,15.95
2023-07-09T01:50:11.788Z,15.91
2023-07-09T01:51:11.800Z,15.98
2023-07-09T01:52:11.834Z,15.91
2023-07-09T01:53:11.832Z,15.94
2023-07-09T01:54:11.829Z,15.98
2023-07-09T01:55:12.661Z,15.97
2023-07-09T01:56:11.833Z,15.84
2023-07-09T01:57:12.644Z,15.94
2023-07-09T01:58:11.751Z,16.01
2023-07-09T01:59:11.784Z,15.94
2023-07-09T02:00:11.858Z,15.94
2023-07-09T02:01:12.711Z,15.84
2023-07-09T02:02:11.804Z,15.76
2023-07-09T02:03:11.726Z,15.77
2023-07-09T02:04:12.743Z,15.82
2023-07-09T02:05:11.735Z,15.76
2023-07-09T02:06:11.760Z,15.68
2023-07-09T02:07:11.691Z,15.70
2023-07-09T02:08:11.715Z,15.72
2023-07-09T02:09:12.746Z,15.64
2023-07-09T02:10:11.696Z,15.73
2023-07-09T02:11:11.679Z,15.67
2023-07-09T02:12:11.693Z,15.68
2023-07-09T02:13:11.688Z,15.64
2023-07-09T02:14:12.086Z,15.65
2023-07-09T02:15:11.661Z,15.62
2023-07-09T02:16:13.224Z,15.75
2023-07-09T02:17:12.192Z,15.75
2023-07-09T02:18:11.654Z,15.58
2023-07-09T02:19:11.614Z,15.65
2023-07-09T02:20:11.577Z,15.62
2023-07-09T02:21:11.572Z,15.65
2023-07-09T02:22:11.601Z,15.58
2023-07-09T02:23:12.567Z,15.57
2023-07-09T02:24:11.562Z,15.54
2023-07-09T02:25:12.478Z,15.40
2023-07-09T02:26:11.589Z,15.44
2023-07-09T02:27:11.565Z,15.54
2023-07-09T02:28:12.503Z,15.52
2023-07-09T02:29:11.663Z,15.46
2023-07-09T02:30:11.596Z,15.46
2023-07-09T02:31:11.548Z,15.44
2023-07-09T02:32:12.165Z,15.52
2023-07-09T02:33:11.583Z,15.44
2023-07-09T02:34:15.596Z,15.52
2023-07-09T02:35:37.005Z,15.51
2023-07-09T02:36:42.943Z,15.47
2023-07-09T02:37:24.981Z,15.54
2023-07-09T02:38:30.036Z,15.47
2023-07-09T02:39:44.017Z,15.54
2023-07-09T02:40:19.473Z,15.51
2023-07-09T02:41:40.461Z,15.51
2023-07-09T02:42:23.025Z,15.54
2023-07-09T02:43:53.540Z,15.52
2023-07-09T02:44:43.439Z,15.58
2023-07-09T02:45:37.811Z,15.58
2023-07-09T02:46:28.951Z,15.57
2023-07-09T02:47:11.415Z,15.46
2023-07-09T02:48:11.358Z,15.49
2023-07-09T02:49:11.353Z,15.42
2023-07-09T02:50:11.364Z,15.39
2023-07-09T02:51:11.322Z,15.37
2023-07-09T02:52:11.364Z,15.46
2023-07-09T02:53:11.308Z,15.37
2023-07-09T02:54:11.365Z,15.36
2023-07-09T02:55:11.328Z,15.40
2023-07-09T02:56:11.316Z,15.37
2023-07-09T02:57:11.321Z,15.36
2023-07-09T02:58:11.333Z,15.29
2023-07-09T02:59:11.269Z,15.33
2023-07-09T03:00:11.394Z,15.29
2023-07-09T03:01:11.254Z,15.25
2023-07-09T03:02:11.490Z,15.29
2023-07-09T03:03:11.314Z,15.27
2023-07-09T03:04:12.163Z,15.25
2023-07-09T03:05:11.283Z,15.29
2023-07-09T03:06:12.211Z,15.28
2023-07-09T03:07:11.361Z,15.31
2023-07-09T03:08:11.232Z,15.27
2023-07-09T03:09:11.226Z,15.22
2023-07-09T03:10:12.202Z,15.24
2023-07-09T03:11:11.204Z,15.21
2023-07-09T03:12:11.238Z,15.25
2023-07-09T03:13:12.175Z,15.25
2023-07-09T03:14:11.352Z,15.19
2023-07-09T03:15:11.145Z,15.10
2023-07-09T03:16:11.138Z,15.17
2023-07-09T03:17:11.111Z,15.15
2023-07-09T03:18:11.110Z,15.11
2023-07-09T03:19:11.188Z,15.15
2023-07-09T03:20:11.710Z,15.11
2023-07-09T03:21:11.134Z,15.15
2023-07-09T03:22:11.203Z,15.09
2023-07-09T03:23:11.145Z,15.15
2023-07-09T03:24:11.109Z,15.07
2023-07-09T03:25:11.958Z,15.06
2023-07-09T03:26:11.144Z,15.10
2023-07-09T03:27:11.700Z,15.17
2023-07-09T03:28:11.034Z,15.03
2023-07-09T03:29:11.146Z,15.03
2023-07-09T03:30:11.043Z,15.03
2023-07-09T03:31:11.024Z,15.14
2023-07-09T03:32:11.192Z,15.15
2023-07-09T03:33:12.065Z,15.18
2023-07-09T03:34:11.715Z,15.19
2023-07-09T03:35:11.530Z,15.24
2023-07-09T03:36:11.083Z,15.33
2023-07-09T03:37:11.523Z,15.39
2023-07-09T03:38:11.003Z,15.36
2023-07-09T03:39:11.018Z,15.52
2023-07-09T03:40:10.949Z,15.57
2023-07-09T03:41:10.952Z,15.57
2023-07-09T03:42:12.703Z,15.64
2023-07-09T03:43:10.978Z,15.72
2023-07-09T03:44:10.949Z,15.75
2023-07-09T03:45:10.953Z,15.75
2023-07-09T03:46:10.917Z,15.94
2023-07-09T03:47:11.057Z,16.01
2023-07-09T04:03:52.250Z,16.72
2023-07-09T04:04:53.480Z,16.86
2023-07-09T04:05:53.400Z,16.93
2023-07-09T04:06:53.328Z,17.08
2023-07-09T04:07:53.328Z,17.12
2023-07-09T04:08:53.357Z,17.26
2023-07-09T04:09:53.385Z,17.39
2023-07-09T04:10:53.362Z,17.34
2023-07-09T04:11:53.295Z,17.59
2023-07-09T04:12:53.312Z,17.54
2023-07-09T04:13:53.370Z,17.76
2023-07-09T04:14:53.344Z,17.70
2023-07-09T04:15:54.495Z,17.90
2023-07-09T04:16:53.976Z,17.92
2023-07-09T04:17:53.289Z,18.01
2023-07-09T04:18:53.356Z,18.19
2023-07-09T04:19:53.332Z,18.31
2023-07-09T04:20:53.241Z,18.49
2023-07-09T04:21:53.220Z,18.60
2023-07-09T04:22:53.253Z,18.56
2023-07-09T04:23:53.224Z,18.75
2023-07-09T04:24:53.236Z,18.81
2023-07-09T04:25:53.345Z,18.93
2023-07-09T04:26:53.213Z,18.98
2023-07-09T04:27:53.210Z,19.02
2023-07-09T04:28:53.192Z,19.07
2023-07-09T04:29:53.267Z,19.09
2023-07-09T04:30:53.173Z,19.27
2023-07-09T04:31:53.276Z,19.24
2023-07-09T04:32:53.219Z,19.36
2023-07-09T04:33:53.163Z,19.29
2023-07-09T04:34:53.129Z,19.40
2023-07-09T04:35:53.122Z,19.40
2023-07-09T04:36:53.142Z,19.24
2023-07-09T04:37:53.098Z,19.12
2023-07-09T04:38:53.090Z,19.16
2023-07-09T04:39:53.101Z,19.16
2023-07-09T04:40:53.110Z,19.07
2023-07-09T04:41:54.116Z,19.36
2023-07-09T04:42:53.144Z,19.34
2023-07-09T04:43:53.129Z,19.51
2023-07-09T04:44:53.221Z,19.34
2023-07-09T04:45:53.120Z,19.41
2023-07-09T04:46:53.076Z,19.30
2023-07-09T04:47:53.110Z,19.44
2023-07-09T04:48:53.049Z,19.55
2023-07-09T04:49:53.027Z,19.71
2023-07-09T04:50:53.046Z,19.85
2023-07-09T04:51:53.012Z,20.09
2023-07-09T04:52:53.073Z,20.11
2023-07-09T04:53:53.029Z,20.28
2023-07-09T04:54:53.056Z,20.34
2023-07-09T04:55:53.036Z,20.58
2023-07-09T04:56:53.126Z,20.77
2023-07-09T04:57:52.991Z,21.03
2023-07-09T04:58:52.986Z,21.22
2023-07-09T04:59:52.976Z,21.32
2023-07-09T05:00:53.029Z,21.37
2023-07-09T05:01:52.991Z,21.57
2023-07-09T05:02:52.968Z,21.55
2023-07-09T05:03:52.955Z,21.83
2023-07-09T05:04:52.940Z,21.55
2023-07-09T05:05:52.876Z,21.62
2023-07-09T05:06:52.893Z,21.70
2023-07-09T05:07:53.036Z,21.91
2023-07-09T05:08:52.895Z,22.22
2023-07-09T05:09:52.872Z,22.32
2023-07-09T05:10:53.874Z,22.44
2023-07-09T05:11:52.883Z,22.55
2023-07-09T05:12:53.522Z,22.75
2023-07-09T05:13:54.275Z,22.84
2023-07-09T05:14:54.476Z,22.91
2023-07-09T05:15:52.880Z,22.90
2023-07-09T05:16:52.823Z,23.02
2023-07-09T05:18:25.353Z,22.91
2023-07-09T05:18:53.499Z,22.98
2023-07-09T05:19:52.797Z,22.85
2023-07-09T05:20:52.748Z,22.75
2023-07-09T05:21:52.771Z,22.85
2023-07-09T05:22:53.475Z,22.85
2023-07-09T05:23:52.813Z,22.83
2023-07-09T05:24:53.520Z,22.78
2023-07-09T05:25:52.816Z,22.99
2023-07-09T05:26:53.264Z,23.12
2023-07-09T05:27:52.755Z,23.32
2023-07-09T05:28:52.743Z,23.18
2023-07-09T05:29:52.711Z,22.68
2023-07-09T05:30:52.754Z,22.48
2023-07-09T05:31:52.727Z,22.55
2023-07-09T05:32:52.729Z,22.39
2023-07-09T05:33:52.710Z,22.78
2023-07-09T05:34:52.720Z,22.60
2023-07-09T05:35:52.710Z,21.73
2023-07-09T05:36:52.712Z,21.30
2023-07-09T05:37:52.748Z,21.51
2023-07-09T05:38:52.709Z,21.64
2023-07-09T05:39:52.659Z,21.48
2023-07-09T05:40:52.656Z,21.27
2023-07-09T05:41:52.646Z,21.09
2023-07-09T05:42:52.634Z,21.15
2023-07-09T05:43:52.663Z,21.02
2023-07-09T05:44:52.645Z,21.66
2023-07-09T05:45:52.643Z,22.23
2023-07-09T05:46:52.650Z,22.55
2023-07-09T05:47:52.574Z,22.80
2023-07-09T05:48:53.380Z,23.06
2023-07-09T05:49:53.717Z,23.12
2023-07-09T05:50:52.578Z,23.12
2023-07-09T05:51:52.622Z,23.34
2023-07-09T05:52:52.594Z,23.78
2023-07-09T05:53:52.597Z,24.18
2023-07-09T05:54:52.566Z,24.35
2023-07-09T05:55:52.528Z,24.55
2023-07-09T05:56:52.571Z,24.73
2023-07-09T05:58:24.422Z,24.74
2023-07-09T05:58:52.478Z,24.18
2023-07-09T05:59:52.465Z,23.88
2023-07-09T06:00:52.502Z,24.24
2023-07-09T06:01:54.912Z,24.50
2023-07-09T06:02:53.129Z,24.68
2023-07-09T06:03:53.128Z,24.17
2023-07-09T06:04:52.496Z,24.32
2023-07-09T06:05:52.497Z,24.88
2023-07-09T06:06:52.502Z,25.08
2023-07-09T06:07:53.482Z,24.88
2023-07-09T06:08:52.488Z,25.16
2023-07-09T06:09:52.465Z,25.11
2023-07-09T06:10:52.447Z,25.25
2023-07-09T06:11:52.418Z,25.13
2023-07-09T06:12:52.435Z,25.65
2023-07-09T06:13:52.489Z,25.63
2023-07-09T06:14:52.458Z,25.46
2023-07-09T06:15:52.443Z,25.69
2023-07-09T06:16:52.487Z,26.23
2023-07-09T06:17:52.517Z,26.73
2023-07-09T06:18:52.459Z,27.11
2023-07-09T06:19:52.452Z,27.42
2023-07-09T06:20:52.399Z,27.65
2023-07-09T06:21:52.403Z,26.78
2023-07-09T06:22:52.317Z,25.77
2023-07-09T06:23:52.342Z,26.25
2023-07-09T06:24:52.360Z,26.29
2023-07-09T06:25:52.316Z,26.00
2023-07-09T06:26:52.317Z,25.88
2023-07-09T06:27:52.551Z,25.87
2023-07-09T06:28:52.343Z,25.98
2023-07-09T06:29:52.375Z,26.07
2023-07-09T06:30:53.190Z,25.53
2023-07-09T06:31:52.287Z,25.93
2023-07-09T06:32:52.381Z,26.28
2023-07-09T06:33:52.283Z,26.71
2023-07-09T06:34:52.371Z,26.96
2023-07-09T06:35:52.286Z,27.17
2023-07-09T06:36:52.320Z,27.48
2023-07-09T06:37:52.250Z,27.49
2023-07-09T06:38:52.201Z,26.95
2023-07-09T06:39:52.312Z,25.62
2023-07-09T06:40:52.220Z,25.10
2023-07-09T06:41:52.232Z,25.01
2023-07-09T06:42:53.024Z,25.33
2023-07-09T06:43:52.323Z,26.19
2023-07-09T06:44:52.895Z,26.59
2023-07-09T06:45:52.242Z,26.92
2023-07-09T06:46:52.297Z,27.63
2023-07-09T06:47:52.305Z,27.90
2023-07-09T06:48:52.226Z,27.45
2023-07-09T06:49:52.186Z,26.26
2023-07-09T06:50:52.146Z,25.48
2023-07-09T06:51:52.191Z,25.33
2023-07-09T06:52:52.137Z,25.44
2023-07-09T06:53:52.136Z,26.36
2023-07-09T06:54:52.102Z,26.75
2023-07-09T06:55:52.144Z,26.84
2023-07-09T06:56:53.050Z,27.05
2023-07-09T06:57:52.072Z,27.12
2023-07-09T06:58:52.175Z,26.83
2023-07-09T06:59:53.071Z,26.95
2023-07-09T07:00:52.116Z,26.70
2023-07-09T07:01:52.158Z,26.21
2023-07-09T07:02:53.095Z,25.77
2023-07-09T07:03:52.131Z,25.88
2023-07-09T07:04:52.041Z,26.80
2023-07-09T07:05:52.950Z,27.80
2023-07-09T07:06:52.055Z,28.72
2023-07-09T07:07:52.030Z,29.01
2023-07-09T07:08:52.917Z,28.94
2023-07-09T07:09:52.062Z,28.29
2023-07-09T07:10:52.033Z,27.95
2023-07-09T07:11:52.025Z,27.65
2023-07-09T07:12:52.030Z,28.01
2023-07-09T07:13:52.159Z,27.90
2023-07-09T07:14:52.574Z,27.96
2023-07-09T07:15:52.013Z,28.12
2023-07-09T07:16:51.994Z,28.59
2023-07-09T07:17:52.207Z,28.67
2023-07-09T07:18:52.024Z,28.41
2023-07-09T07:19:53.072Z,29.32
2023-07-09T07:20:51.942Z,30.02
2023-07-09T07:21:52.949Z,30.27
2023-07-09T07:22:51.973Z,30.68
2023-07-09T07:23:53.826Z,30.88
2023-07-09T07:24:52.939Z,30.70
2023-07-09T07:25:52.040Z,30.81
2023-07-09T07:26:51.901Z,30.32
2023-07-09T07:27:52.639Z,30.03
2023-07-09T07:28:51.899Z,29.95
2023-07-09T07:29:51.996Z,29.56
2023-07-09T07:30:51.863Z,29.68
2023-07-09T07:31:51.872Z,30.59
2023-07-09T07:32:51.884Z,31.47
2023-07-09T07:33:52.832Z,31.87
2023-07-09T07:34:51.823Z,31.92
2023-07-09T07:36:16.537Z,32.34
2023-07-09T07:36:53.907Z,32.30
2023-07-09T07:37:51.798Z,32.16
2023-07-09T07:38:51.829Z,32.37
2023-07-09T07:39:54.486Z,32.68
2023-07-09T07:40:51.830Z,33.02
2023-07-09T07:41:51.836Z,33.69
2023-07-09T07:42:51.847Z,33.67
2023-07-09T07:43:51.820Z,33.86
2023-07-09T07:44:51.798Z,33.49
2023-07-09T07:45:51.804Z,33.00
2023-07-09T07:46:51.910Z,32.26
2023-07-09T07:47:51.874Z,32.80
2023-07-09T07:48:51.760Z,33.69
2023-07-09T07:49:51.923Z,34.13
2023-07-09T07:50:51.745Z,32.51
2023-07-09T07:51:51.749Z,32.19
2023-07-09T07:52:51.788Z,32.11
2023-07-09T07:53:51.799Z,31.39
2023-07-09T07:54:51.710Z,31.93
2023-07-09T07:55:52.520Z,31.90
2023-07-09T07:56:51.953Z,31.85
2023-07-09T07:57:51.790Z,32.00
2023-07-09T07:58:51.720Z,32.74
2023-07-09T07:59:53.663Z,32.77
2023-07-09T08:00:51.659Z,32.03
2023-07-09T08:01:51.730Z,32.19
2023-07-09T08:02:51.671Z,32.26
2023-07-09T08:03:51.725Z,33.07
2023-07-09T08:04:51.686Z,33.40
2023-07-09T08:05:51.725Z,33.37
2023-07-09T08:06:51.630Z,33.23
2023-07-09T08:07:51.611Z,33.22
2023-07-09T08:08:51.789Z,32.58
2023-07-09T08:09:52.602Z,32.73
2023-07-09T08:10:51.694Z,33.53
2023-07-09T08:11:52.459Z,34.06
2023-07-09T08:12:51.626Z,34.43
2023-07-09T08:13:51.732Z,34.48
2023-07-09T08:14:51.580Z,34.95
2023-07-09T08:15:51.612Z,34.86
2023-07-09T08:16:51.611Z,34.90
2023-07-09T08:17:51.623Z,35.05
2023-07-09T08:18:51.630Z,34.93
2023-07-09T08:19:51.953Z,35.55
2023-07-09T08:20:51.603Z,35.79
2023-07-09T08:21:51.572Z,35.00
2023-07-09T08:22:51.545Z,34.32
2023-07-09T08:23:51.547Z,34.77
2023-07-09T08:24:51.536Z,35.78
2023-07-09T08:25:51.465Z,36.16
2023-07-09T08:26:52.524Z,36.57
2023-07-09T08:27:51.478Z,36.25
2023-07-09T08:29:23.921Z,35.66
2023-07-09T08:30:25.472Z,36.18
2023-07-09T08:30:51.420Z,36.25
2023-07-09T08:31:51.420Z,36.40
2023-07-09T08:32:51.501Z,36.81
2023-07-09T08:33:51.420Z,36.54
2023-07-09T08:35:25.444Z,36.25
2023-07-09T08:35:53.432Z,35.97
2023-07-09T08:36:52.016Z,36.81
2023-07-09T08:37:51.411Z,37.33
2023-07-09T08:38:51.451Z,37.94
2023-07-09T08:39:52.189Z,38.26
2023-07-09T08:40:51.423Z,38.79
2023-07-09T08:41:53.405Z,38.34
2023-07-09T08:43:01.590Z,37.63
2023-07-09T08:43:52.392Z,37.77
2023-07-09T08:44:52.200Z,37.97
2023-07-09T08:45:51.376Z,37.96
2023-07-09T08:46:51.345Z,38.28
2023-07-09T08:47:51.367Z,38.61
2023-07-09T08:48:51.313Z,38.97
2023-07-09T08:49:51.369Z,39.09
2023-07-09T08:50:52.051Z,39.00
2023-07-09T08:51:51.933Z,38.83
2023-07-09T08:52:52.165Z,37.71
2023-07-09T08:53:51.289Z,36.86
2023-07-09T08:54:51.298Z,36.98
2023-07-09T08:55:51.336Z,35.89
2023-07-09T08:56:51.320Z,35.31
2023-07-09T08:57:51.300Z,35.42
2023-07-09T08:58:51.333Z,35.80
2023-07-09T08:59:51.282Z,35.60
2023-07-09T09:00:53.568Z,36.16
2023-07-09T09:01:52.330Z,36.89
2023-07-09T09:02:51.334Z,37.63
2023-07-09T09:03:51.286Z,37.96
2023-07-09T09:04:51.237Z,38.33
2023-07-09T09:05:51.236Z,37.72
2023-07-09T09:06:51.219Z,37.51
2023-07-09T09:07:51.237Z,37.94
2023-07-09T09:08:51.272Z,38.64
2023-07-09T09:09:51.244Z,38.80
2023-07-09T09:10:51.248Z,37.45
2023-07-09T09:11:51.254Z,36.73
2023-07-09T09:12:51.253Z,37.03
2023-07-09T09:13:51.455Z,37.07
2023-07-09T09:14:51.275Z,36.52
2023-07-09T09:15:51.454Z,36.49
2023-07-09T09:16:51.184Z,36.86
2023-07-09T09:17:51.215Z,37.30
2023-07-09T09:18:51.154Z,36.52
2023-07-09T09:19:51.160Z,36.30
2023-07-09T09:20:51.147Z,36.64
2023-07-09T09:21:51.157Z,37.39
2023-07-09T09:22:51.156Z,38.17
2023-07-09T09:23:51.114Z,38.80
2023-07-09T09:24:51.149Z,39.30
2023-07-09T09:25:55.355Z,39.43
2023-07-09T09:26:53.129Z,38.97
2023-07-09T09:27:52.193Z,38.73
2023-07-09T09:28:51.097Z,38.67
2023-07-09T09:29:51.086Z,39.15
2023-07-09T09:30:51.106Z,39.29
2023-07-09T09:31:51.117Z,39.58
2023-07-09T09:32:51.081Z,39.65
2023-07-09T09:33:51.086Z,39.37
2023-07-09T09:34:51.069Z,39.72
2023-07-09T09:35:51.218Z,38.55
2023-07-09T09:36:51.944Z,37.60
2023-07-09T09:37:51.072Z,36.80
2023-07-09T09:38:52.071Z,36.77
2023-07-09T09:40:03.260Z,36.61
2023-07-09T09:40:53.296Z,36.54
2023-07-09T09:41:51.624Z,36.40
2023-07-09T09:42:51.018Z,36.36
2023-07-09T09:43:50.986Z,35.95
2023-07-09T09:44:51.011Z,36.23
2023-07-09T09:45:51.074Z,35.30
2023-07-09T09:46:51.029Z,35.41
2023-07-09T09:47:51.004Z,35.88
2023-07-09T09:48:50.977Z,36.61
2023-07-09T09:49:50.973Z,37.35
2023-07-09T09:50:51.011Z,38.06
2023-07-09T09:51:51.040Z,37.25
2023-07-09T09:52:50.998Z,36.05
2023-07-09T09:53:51.170Z,36.18
2023-07-09T09:55:24.099Z,36.47
2023-07-09T09:55:50.925Z,36.45
2023-07-09T09:56:50.929Z,36.55
2023-07-09T09:57:50.880Z,37.14
2023-07-09T09:59:24.329Z,37.87
2023-07-09T09:59:51.582Z,38.40
2023-07-09T10:00:50.948Z,38.82
2023-07-09T10:01:51.787Z,38.55
2023-07-09T10:02:51.004Z,38.15
2023-07-09T10:03:52.764Z,37.39
2023-07-09T10:04:51.745Z,37.77
2023-07-09T10:05:50.877Z,38.48
2023-07-09T10:06:50.892Z,39.19
2023-07-09T10:07:50.905Z,37.59
2023-07-09T10:08:50.916Z,37.77
2023-07-09T10:09:53.056Z,38.43
2023-07-09T10:10:50.911Z,39.02
2023-07-09T10:12:23.672Z,38.12
2023-07-09T10:12:51.346Z,38.39
2023-07-09T10:13:50.869Z,38.79
2023-07-09T10:14:50.909Z,39.22
2023-07-09T10:15:50.844Z,38.52
2023-07-09T10:16:50.854Z,38.50
2023-07-09T10:17:50.998Z,38.86
2023-07-09T10:18:50.939Z,38.86
2023-07-09T10:19:50.920Z,38.17
2023-07-09T10:20:50.822Z,38.61
2023-07-09T10:21:50.807Z,39.07
2023-07-09T10:22:50.812Z,38.77
2023-07-09T10:23:51.796Z,37.89
2023-07-09T10:24:50.769Z,38.19
2023-07-09T10:25:51.881Z,37.97
2023-07-09T10:26:50.776Z,37.40
2023-07-09T10:27:50.854Z,37.45
2023-07-09T10:28:50.795Z,38.20
2023-07-09T10:29:51.727Z,38.89
2023-07-09T10:30:50.880Z,39.34
2023-07-09T10:31:51.294Z,39.25
2023-07-09T10:32:50.864Z,39.37
2023-07-09T10:33:50.745Z,39.60
2023-07-09T10:34:50.889Z,39.77
2023-07-09T10:35:50.814Z,40.06
2023-07-09T10:36:50.714Z,40.20
2023-07-09T10:37:50.773Z,40.35
2023-07-09T10:38:50.724Z,40.38
2023-07-09T10:39:51.589Z,39.68
2023-07-09T10:40:50.752Z,38.21
2023-07-09T10:41:51.691Z,37.02
2023-07-09T10:42:50.727Z,36.18
2023-07-09T10:43:50.765Z,36.43
2023-07-09T10:44:52.650Z,37.07
2023-07-09T10:45:51.670Z,36.67
2023-07-09T10:46:50.813Z,36.43
2023-07-09T10:47:50.745Z,36.21
2023-07-09T10:48:50.711Z,36.80
2023-07-09T10:49:51.602Z,37.64
2023-07-09T10:50:50.731Z,38.33
2023-07-09T10:51:50.694Z,38.04
2023-07-09T10:52:50.631Z,37.78
2023-07-09T10:53:53.388Z,37.99
2023-07-09T10:54:50.657Z,38.28
2023-07-09T10:55:50.618Z,38.84
2023-07-09T10:56:51.245Z,39.02
2023-07-09T10:57:50.635Z,39.46
2023-07-09T10:58:50.644Z,39.67
2023-07-09T10:59:51.241Z,39.72
2023-07-09T11:00:50.654Z,39.92
2023-07-09T11:01:50.633Z,39.93
2023-07-09T11:02:50.653Z,39.97
2023-07-09T11:03:51.328Z,40.05
2023-07-09T11:04:50.524Z,40.11
2023-07-09T11:05:50.555Z,40.20
2023-07-09T11:06:51.738Z,39.97
2023-07-09T11:07:50.552Z,39.41
2023-07-09T11:08:51.410Z,38.77
2023-07-09T11:09:51.200Z,38.19
2023-07-09T11:10:50.619Z,37.80
2023-07-09T11:11:50.561Z,37.82
2023-07-09T11:12:51.304Z,38.02
2023-07-09T11:13:52.970Z,38.11
2023-07-09T11:14:51.506Z,38.38
2023-07-09T11:15:50.626Z,38.62
2023-07-09T11:16:50.535Z,38.39
2023-07-09T11:17:50.520Z,38.15
2023-07-09T11:18:50.483Z,38.82
2023-07-09T11:19:50.634Z,38.71
2023-07-09T11:20:50.489Z,38.80
2023-07-09T11:21:50.442Z,39.11
2023-07-09T11:22:50.430Z,39.58
2023-07-09T11:23:50.511Z,39.37
2023-07-09T11:24:50.444Z,39.15
2023-07-09T11:25:50.492Z,38.80
2023-07-09T11:26:51.034Z,37.55
2023-07-09T11:27:50.434Z,36.73
2023-07-09T11:28:50.475Z,36.42
2023-07-09T11:29:51.112Z,37.25
2023-07-09T11:30:50.422Z,38.09
2023-07-09T11:31:50.444Z,38.50
2023-07-09T11:32:50.451Z,37.53
2023-07-09T11:33:50.433Z,36.43
2023-07-09T11:34:50.382Z,35.80
2023-07-09T11:35:50.400Z,35.73
2023-07-09T11:37:23.827Z,36.16
2023-07-09T11:37:56.765Z,36.55
2023-07-09T11:38:50.360Z,36.76
2023-07-09T11:39:50.694Z,36.18
2023-07-09T11:40:50.320Z,36.23
2023-07-09T11:41:50.933Z,36.28
2023-07-09T11:42:50.391Z,35.83
2023-07-09T11:43:50.355Z,35.90
2023-07-09T11:44:50.389Z,36.30
2023-07-09T11:45:51.215Z,36.51
2023-07-09T11:46:50.289Z,36.62
2023-07-09T11:47:50.316Z,36.61
2023-07-09T11:48:50.342Z,36.70
2023-07-09T11:49:50.324Z,37.11
2023-07-09T11:50:50.260Z,37.08
2023-07-09T11:51:50.257Z,36.64
2023-07-09T11:52:50.309Z,36.46
2023-07-09T11:53:50.271Z,36.16
2023-07-09T11:54:50.414Z,35.71
2023-07-09T11:55:50.284Z,35.67
2023-07-09T11:56:50.237Z,35.93
2023-07-09T11:57:50.230Z,36.31
2023-07-09T11:58:50.206Z,35.92
2023-07-09T11:59:50.209Z,35.97
2023-07-09T12:00:50.262Z,35.67
2023-07-09T12:01:50.296Z,35.66
2023-07-09T12:02:50.186Z,35.71
2023-07-09T12:03:50.274Z,35.48
2023-07-09T12:04:50.462Z,35.36
2023-07-09T12:05:50.954Z,35.70
2023-07-09T12:06:50.324Z,35.61
2023-07-09T12:07:50.172Z,35.49
2023-07-09T12:08:50.254Z,35.42
2023-07-09T12:09:50.151Z,35.46
2023-07-09T12:10:51.117Z,35.95
2023-07-09T12:11:50.232Z,36.36
2023-07-09T12:12:50.123Z,36.24
2023-07-09T12:13:50.185Z,35.98
2023-07-09T12:14:50.158Z,35.86
2023-07-09T12:15:50.970Z,35.73
2023-07-09T12:16:50.796Z,35.68
2023-07-09T12:17:50.163Z,35.82
2023-07-09T12:18:50.133Z,36.36
2023-07-09T12:19:50.968Z,36.59
2023-07-09T12:20:50.118Z,36.09
2023-07-09T12:21:50.123Z,36.09
2023-07-09T12:22:51.478Z,35.68
2023-07-09T12:23:50.127Z,35.48
2023-07-09T12:24:50.076Z,35.86
2023-07-09T12:25:50.057Z,36.55
2023-07-09T12:26:50.058Z,36.86
2023-07-09T12:27:50.050Z,36.58
2023-07-09T12:28:50.064Z,36.92
2023-07-09T12:29:50.057Z,37.68
2023-07-09T12:30:50.750Z,38.04
2023-07-09T12:31:50.135Z,38.31
2023-07-09T12:32:50.747Z,38.49
2023-07-09T12:33:50.042Z,38.60
2023-07-09T12:34:49.996Z,38.52
2023-07-09T12:35:50.094Z,37.87
2023-07-09T12:36:51.013Z,37.32
2023-07-09T12:37:49.972Z,37.29
2023-07-09T12:38:49.965Z,37.32
2023-07-09T12:39:49.943Z,37.39
2023-07-09T12:40:50.021Z,36.91
2023-07-09T12:41:50.030Z,36.83
2023-07-09T12:42:50.017Z,36.57
2023-07-09T12:43:49.966Z,36.52
2023-07-09T12:44:50.731Z,36.52
2023-07-09T12:45:50.006Z,36.37
2023-07-09T12:46:49.940Z,36.18
2023-07-09T12:47:50.033Z,35.90
2023-07-09T12:48:49.878Z,35.82
2023-07-09T12:49:49.975Z,36.12
2023-07-09T12:50:49.936Z,36.05
2023-07-09T12:51:49.907Z,36.35
2023-07-09T12:52:49.901Z,36.40
2023-07-09T12:53:49.881Z,36.42
2023-07-09T12:54:49.947Z,36.64
2023-07-09T12:55:49.840Z,36.70
2023-07-09T12:56:49.877Z,36.51
2023-07-09T12:57:49.855Z,36.70
2023-07-09T12:58:49.893Z,36.92
2023-07-09T12:59:49.888Z,37.06
2023-07-09T13:00:50.428Z,37.08
2023-07-09T13:01:49.938Z,37.01
2023-07-09T13:02:49.925Z,37.06
2023-07-09T13:03:49.887Z,37.18
2023-07-09T13:04:49.837Z,37.18
2023-07-09T13:05:49.846Z,36.76
2023-07-09T13:06:49.833Z,36.54
2023-07-09T13:07:49.778Z,36.54